createdAt,value
2023-02-27T00:00:49.859Z,9.457273
2023-02-27T00:01:49.847Z,9.457199
2023-02-27T00:02:49.870Z,9.457193
2023-02-27T00:03:49.879Z,9.457174
2023-02-27T00:04:49.831Z,9.457143
2023-02-27T00:05:49.841Z,9.457569
2023-02-27T00:06:49.827Z,9.457523
2023-02-27T00:07:49.811Z,9.457404
2023-02-27T00:08:49.812Z,9.457496
2023-02-27T00:09:49.776Z,9.457318
2023-02-27T00:10:49.773Z,9.456964
2023-02-27T00:11:49.759Z,9.456985
2023-02-27T00:12:49.796Z,9.457013
2023-02-27T00:13:49.742Z,9.456897
2023-02-27T00:14:49.723Z,9.456843
2023-02-27T00:15:49.790Z,9.457119
2023-02-27T00:16:49.726Z,9.457144
2023-02-27T00:17:49.724Z,9.457249
2023-02-27T00:18:49.697Z,9.457202
2023-02-27T00:19:49.674Z,9.457089
2023-02-27T00:20:49.667Z,9.457137
2023-02-27T00:21:49.665Z,9.457196
2023-02-27T00:22:49.686Z,9.457015
2023-02-27T00:23:49.640Z,9.457100
2023-02-27T00:24:49.632Z,9.457006
2023-02-27T00:25:49.623Z,9.456898
2023-02-27T00:26:49.631Z,9.456971
2023-02-27T00:27:49.605Z,9.456768
2023-02-27T00:28:49.625Z,9.456772
2023-02-27T00:29:49.574Z,9.456911
2023-02-27T00:30:49.692Z,9.457004
2023-02-27T00:31:49.627Z,9.457011
2023-02-27T00:32:49.566Z,9.457115
2023-02-27T00:33:49.546Z,9.457138
2023-02-27T00:34:49.525Z,9.457277
2023-02-27T00:35:49.520Z,9.457186
2023-02-27T00:36:49.503Z,9.457411
2023-02-27T00:37:49.508Z,9.457294
2023-02-27T00:38:49.497Z,9.457188
2023-02-27T00:39:49.481Z,9.457221
2023-02-27T00:40:49.458Z,9.457108
2023-02-27T00:41:50.466Z,9.457207
2023-02-27T00:42:49.494Z,9.457372
2023-02-27T00:43:49.435Z,9.457367
2023-02-27T00:44:49.426Z,9.457232
2023-02-27T00:45:49.417Z,9.457382
2023-02-27T00:46:49.424Z,9.457376
2023-02-27T00:47:49.430Z,9.457439
2023-02-27T00:48:49.385Z,9.457276
2023-02-27T00:49:49.385Z,9.457214
2023-02-27T00:50:49.378Z,9.457159
2023-02-27T00:51:49.394Z,9.457224
2023-02-27T00:52:49.379Z,9.457296
2023-02-27T00:53:49.339Z,9.457306
2023-02-27T00:54:49.331Z,9.457155
2023-02-27T00:55:49.319Z,9.457213
2023-02-27T00:56:49.312Z,9.457308
2023-02-27T00:57:49.407Z,9.457309
2023-02-27T00:58:49.305Z,9.457368
2023-02-27T00:59:49.300Z,9.457275
2023-02-27T01:00:49.332Z,9.457196
2023-02-27T01:01:49.256Z,9.457272
2023-02-27T01:02:49.324Z,9.457231
2023-02-27T01:03:49.266Z,9.457233
2023-02-27T01:04:49.236Z,9.457235
2023-02-27T01:05:49.223Z,9.457210
2023-02-27T01:06:49.209Z,9.457263
2023-02-27T01:07:49.226Z,9.457459
2023-02-27T01:08:49.218Z,9.457222
2023-02-27T01:09:49.182Z,9.457241
2023-02-27T01:10:49.182Z,9.457307
2023-02-27T01:11:49.180Z,9.457299
2023-02-27T01:12:49.152Z,9.457258
2023-02-27T01:13:49.161Z,9.457154
2023-02-27T01:14:49.179Z,9.457276
2023-02-27T01:15:49.144Z,9.457267
2023-02-27T01:16:49.162Z,9.457354
2023-02-27T01:17:49.121Z,9.457284
2023-02-27T01:18:49.120Z,9.457231
2023-02-27T01:19:49.095Z,9.457293
2023-02-27T01:20:49.093Z,9.457463
2023-02-27T01:21:49.067Z,9.457382
2023-02-27T01:22:49.079Z,9.457356
2023-02-27T01:23:49.068Z,9.457177
2023-02-27T01:24:49.062Z,9.457556
2023-02-27T01:25:49.040Z,9.457932
2023-02-27T01:26:49.070Z,9.457582
2023-02-27T01:27:49.008Z,9.457479
2023-02-27T01:28:49.030Z,9.457517
2023-02-27T01:29:49.028Z,9.457480
2023-02-27T01:30:49.006Z,9.457444
2023-02-27T01:31:49.106Z,9.457516
2023-02-27T01:32:49.007Z,9.457153
2023-02-27T01:33:48.991Z,9.457581
2023-02-27T01:34:48.948Z,9.457323
2023-02-27T01:35:48.935Z,9.457482
2023-02-27T01:36:48.925Z,9.457955
2023-02-27T01:37:48.921Z,9.458372
2023-02-27T01:38:48.926Z,9.458488
2023-02-27T01:39:48.905Z,9.458198
2023-02-27T01:40:48.897Z,9.457719
2023-02-27T01:41:48.886Z,9.457579
2023-02-27T01:42:48.877Z,9.457480
2023-02-27T01:43:48.915Z,9.457343
2023-02-27T01:44:48.859Z,9.457432
2023-02-27T01:45:48.895Z,9.457306
2023-02-27T01:46:48.841Z,9.457148
2023-02-27T01:47:48.835Z,9.457329
2023-02-27T01:48:48.837Z,9.457419
2023-02-27T01:49:48.803Z,9.457290
2023-02-27T01:50:49.815Z,9.457255
2023-02-27T01:51:48.782Z,9.457240
2023-02-27T01:52:48.782Z,9.457316
2023-02-27T01:53:48.788Z,9.457238
2023-02-27T01:54:48.767Z,9.457084
2023-02-27T01:55:48.747Z,9.457150
2023-02-27T01:56:48.741Z,9.457270
2023-02-27T01:57:48.742Z,9.457353
2023-02-27T01:58:48.737Z,9.457299
2023-02-27T01:59:48.720Z,9.457281
2023-02-27T02:00:48.743Z,9.457269
2023-02-27T02:01:49.556Z,9.457298
2023-02-27T02:02:48.683Z,9.457115
2023-02-27T02:03:48.696Z,9.457135
2023-02-27T02:04:48.664Z,9.457106
2023-02-27T02:05:48.652Z,9.456948
2023-02-27T02:06:48.648Z,9.457072
2023-02-27T02:07:48.632Z,9.457064
2023-02-27T02:08:48.648Z,9.457096
2023-02-27T02:09:48.626Z,9.456998
2023-02-27T02:10:48.608Z,9.457145
2023-02-27T02:11:48.600Z,9.457129
2023-02-27T02:12:48.607Z,9.457272
2023-02-27T02:13:48.681Z,9.457306
2023-02-27T02:14:48.569Z,9.457270
2023-02-27T02:15:48.562Z,9.457246
2023-02-27T02:16:48.570Z,9.457147
2023-02-27T02:17:48.542Z,9.457235
2023-02-27T02:18:48.544Z,9.457320
2023-02-27T02:19:48.521Z,9.457275
2023-02-27T02:20:48.518Z,9.457328
2023-02-27T02:21:48.509Z,9.457240
2023-02-27T02:22:48.503Z,9.457252
2023-02-27T02:23:48.509Z,9.457261
2023-02-27T02:24:48.481Z,9.457172
2023-02-27T02:25:48.474Z,9.457132
2023-02-27T02:26:48.453Z,9.457171
2023-02-27T02:27:48.462Z,9.457169
2023-02-27T02:28:48.453Z,9.457275
2023-02-27T02:29:48.430Z,9.457277
2023-02-27T02:30:48.518Z,9.457327
2023-02-27T02:31:48.563Z,9.456874
2023-02-27T02:32:48.404Z,9.456964
2023-02-27T02:33:48.402Z,9.457115
2023-02-27T02:34:48.393Z,9.457216
2023-02-27T02:35:48.372Z,9.457166
2023-02-27T02:36:48.366Z,9.457186
2023-02-27T02:37:48.364Z,9.457184
2023-02-27T02:38:48.377Z,9.457109
2023-02-27T02:39:48.340Z,9.457147
2023-02-27T02:40:48.333Z,9.457249
2023-02-27T02:41:48.318Z,9.457280
2023-02-27T02:42:48.317Z,9.457287
2023-02-27T02:43:48.323Z,9.457384
2023-02-27T02:44:48.296Z,9.457392
2023-02-27T02:45:48.329Z,9.457172
2023-02-27T02:46:48.284Z,9.457280
2023-02-27T02:47:48.288Z,9.457190
2023-02-27T02:48:48.271Z,9.457144
2023-02-27T02:49:48.258Z,9.457320
2023-02-27T02:50:48.233Z,9.457188
2023-02-27T02:51:48.230Z,9.457133
2023-02-27T02:52:48.223Z,9.456938
2023-02-27T02:53:48.242Z,9.457107
2023-02-27T02:54:48.204Z,9.457150
2023-02-27T02:55:48.200Z,9.457168
2023-02-27T02:56:48.175Z,9.457138
2023-02-27T02:57:48.173Z,9.457100
2023-02-27T02:58:48.216Z,9.457253
2023-02-27T02:59:48.158Z,9.456890
2023-02-27T03:00:49.150Z,9.456934
2023-02-27T03:01:48.148Z,9.456871
2023-02-27T03:02:48.134Z,9.457294
2023-02-27T03:03:48.142Z,9.457215
2023-02-27T03:04:48.114Z,9.456970
2023-02-27T03:05:48.109Z,9.456961
2023-02-27T03:06:48.100Z,9.457089
2023-02-27T03:07:48.121Z,9.456924
2023-02-27T03:08:48.095Z,9.456942
2023-02-27T03:09:48.065Z,9.457027
2023-02-27T03:10:48.062Z,9.456982
2023-02-27T03:11:48.065Z,9.456998
2023-02-27T03:12:48.046Z,9.457138
2023-02-27T03:13:48.077Z,9.457143
2023-02-27T03:14:48.027Z,9.457163
2023-02-27T03:15:48.085Z,9.456983
2023-02-27T03:16:48.017Z,9.457088
2023-02-27T03:17:47.987Z,9.457190
2023-02-27T03:18:48.007Z,9.457162
2023-02-27T03:19:47.977Z,9.457233
2023-02-27T03:20:47.963Z,9.457186
2023-02-27T03:21:47.967Z,9.457126
2023-02-27T03:22:47.946Z,9.457077
2023-02-27T03:23:47.957Z,9.457040
2023-02-27T03:24:47.941Z,9.457019
2023-02-27T03:25:47.928Z,9.457057
2023-02-27T03:26:47.925Z,9.457012
2023-02-27T03:27:47.910Z,9.457129
2023-02-27T03:28:47.925Z,9.457355
2023-02-27T03:29:47.889Z,9.457592
2023-02-27T03:30:47.952Z,9.457432
2023-02-27T03:31:47.957Z,9.457376
2023-02-27T03:32:47.884Z,9.457183
2023-02-27T03:33:47.879Z,9.457143
2023-02-27T03:34:47.840Z,9.457189
2023-02-27T03:35:47.834Z,9.457165
2023-02-27T03:36:47.818Z,9.457100
2023-02-27T03:37:47.809Z,9.457144
2023-02-27T03:38:47.824Z,9.457272
2023-02-27T03:39:47.798Z,9.457176
2023-02-27T03:40:47.789Z,9.457047
2023-02-27T03:41:47.795Z,9.457257
2023-02-27T03:42:47.770Z,9.457210
2023-02-27T03:43:47.811Z,9.457268
2023-02-27T03:44:47.771Z,9.457223
2023-02-27T03:45:47.744Z,9.457253
2023-02-27T03:46:47.738Z,9.457228
2023-02-27T03:47:47.729Z,9.457184
2023-02-27T03:48:47.760Z,9.457216
2023-02-27T03:49:47.700Z,9.457257
2023-02-27T03:50:47.699Z,9.457233
2023-02-27T03:51:47.683Z,9.457171
2023-02-27T03:52:47.673Z,9.457253
2023-02-27T03:53:47.689Z,9.457212
2023-02-27T03:54:47.655Z,9.457297
2023-02-27T03:55:47.674Z,9.457263
2023-02-27T03:56:47.636Z,9.457220
2023-02-27T03:57:47.632Z,9.457135
2023-02-27T03:58:47.650Z,9.457117
2023-02-27T03:59:47.613Z,9.457167
2023-02-27T04:00:47.611Z,9.457213
2023-02-27T04:01:47.623Z,9.457335
2023-02-27T04:02:47.665Z,9.457241
2023-02-27T04:03:47.650Z,9.457187
2023-02-27T04:04:47.568Z,9.457134
2023-02-27T04:05:47.557Z,9.457173
2023-02-27T04:06:47.621Z,9.457167
2023-02-27T04:07:47.553Z,9.457246
2023-02-27T04:08:47.552Z,9.457180
2023-02-27T04:09:47.529Z,9.457194
2023-02-27T04:10:47.510Z,9.457275
2023-02-27T04:11:47.510Z,9.457255
2023-02-27T04:12:47.502Z,9.457229
2023-02-27T04:13:47.500Z,9.457213
2023-02-27T04:14:47.506Z,9.457165
2023-02-27T04:15:47.529Z,9.456977
2023-02-27T04:16:47.472Z,9.457178
2023-02-27T04:17:47.463Z,9.457315
2023-02-27T04:18:47.553Z,9.457290
2023-02-27T04:19:47.437Z,9.457350
2023-02-27T04:20:47.433Z,9.457391
2023-02-27T04:21:47.429Z,9.457410
2023-02-27T04:22:47.417Z,9.457247
2023-02-27T04:23:47.420Z,9.457209
2023-02-27T04:24:47.429Z,9.457217
2023-02-27T04:25:47.402Z,9.457184
2023-02-27T04:26:47.379Z,9.457111
2023-02-27T04:27:47.391Z,9.457138
2023-02-27T04:28:47.365Z,9.457176
2023-02-27T04:29:47.382Z,9.457231
2023-02-27T04:30:47.403Z,9.457149
2023-02-27T04:31:47.541Z,9.457240
2023-02-27T04:32:47.346Z,9.457171
2023-02-27T04:33:47.324Z,9.457108
2023-02-27T04:34:47.335Z,9.456958
2023-02-27T04:35:47.313Z,9.457089
2023-02-27T04:36:47.313Z,9.457206
2023-02-27T04:37:47.294Z,9.457138
2023-02-27T04:38:47.281Z,9.457110
2023-02-27T04:39:47.290Z,9.456961
2023-02-27T04:40:47.262Z,9.457034
2023-02-27T04:41:47.281Z,9.457047
2023-02-27T04:42:47.248Z,9.457233
2023-02-27T04:43:47.236Z,9.457170
2023-02-27T04:44:47.275Z,9.457354
2023-02-27T04:45:47.345Z,9.457129
2023-02-27T04:46:47.235Z,9.457184
2023-02-27T04:47:47.227Z,9.457066
2023-02-27T04:48:47.200Z,9.457163
2023-02-27T04:49:47.208Z,9.457347
2023-02-27T04:50:47.181Z,9.457294
2023-02-27T04:51:47.180Z,9.457317
2023-02-27T04:52:47.177Z,9.457184
2023-02-27T04:53:47.156Z,9.457267
2023-02-27T04:54:47.177Z,9.457361
2023-02-27T04:55:47.150Z,9.457413
2023-02-27T04:56:47.142Z,9.457254
2023-02-27T04:57:47.141Z,9.457226
2023-02-27T04:58:47.114Z,9.457311
2023-02-27T04:59:47.141Z,9.457330
2023-02-27T05:00:47.099Z,9.457283
2023-02-27T05:01:47.185Z,9.457179
2023-02-27T05:02:47.145Z,9.457243
2023-02-27T05:03:47.089Z,9.457191
2023-02-27T05:04:47.084Z,9.457388
2023-02-27T05:05:47.063Z,9.457363
2023-02-27T05:06:47.065Z,9.457335
2023-02-27T05:07:47.052Z,9.457241
2023-02-27T05:08:47.037Z,9.457185
2023-02-27T05:09:47.058Z,9.457231
2023-02-27T05:10:47.018Z,9.457204
2023-02-27T05:11:47.009Z,9.457234
2023-02-27T05:12:47.007Z,9.457277
2023-02-27T05:13:47.011Z,9.457191
2023-02-27T05:14:47.055Z,9.457215
2023-02-27T05:15:48.012Z,9.457182
2023-02-27T05:16:46.982Z,9.457201
2023-02-27T05:17:47.034Z,9.457190
2023-02-27T05:18:46.948Z,9.457281
2023-02-27T05:19:46.974Z,9.457337
2023-02-27T05:20:46.936Z,9.457342
2023-02-27T05:21:46.933Z,9.457211
2023-02-27T05:22:46.925Z,9.457351
2023-02-27T05:23:46.913Z,9.457307
2023-02-27T05:24:46.941Z,9.457327
2023-02-27T05:25:46.926Z,9.457295
2023-02-27T05:26:46.895Z,9.457206
2023-02-27T05:27:46.890Z,9.457223
2023-02-27T05:28:46.866Z,9.457135
2023-02-27T05:29:46.870Z,9.457195
2023-02-27T05:30:46.904Z,9.457296
2023-02-27T05:32:19.862Z,9.457265
2023-02-27T05:32:46.877Z,9.457251
2023-02-27T05:33:46.834Z,9.457293
2023-02-27T05:34:46.837Z,9.457247
2023-02-27T05:35:46.858Z,9.457169
2023-02-27T05:36:46.806Z,9.457412
2023-02-27T05:37:46.786Z,9.457403
2023-02-27T05:38:46.791Z,9.457314
2023-02-27T05:39:46.772Z,9.457219
2023-02-27T05:40:46.764Z,9.457238
2023-02-27T05:41:46.792Z,9.457232
2023-02-27T05:42:46.740Z,9.457202
2023-02-27T05:43:46.737Z,9.457278
2023-02-27T05:44:46.721Z,9.457415
2023-02-27T05:45:46.748Z,9.457435
2023-02-27T05:46:46.708Z,9.457251
2023-02-27T05:47:46.700Z,9.457178
2023-02-27T05:48:46.684Z,9.457155
2023-02-27T05:49:46.699Z,9.457358
2023-02-27T05:50:46.670Z,9.457088
2023-02-27T05:51:46.659Z,9.457176
2023-02-27T05:52:46.645Z,9.457292
2023-02-27T05:53:46.656Z,9.457414
2023-02-27T05:54:46.664Z,9.457413
2023-02-27T05:55:46.621Z,9.457299
2023-02-27T05:56:46.617Z,9.457256
2023-02-27T05:57:46.616Z,9.457358
2023-02-27T05:58:46.608Z,9.457344
2023-02-27T05:59:46.639Z,9.457313
2023-02-27T06:00:46.585Z,9.457389
2023-02-27T06:01:46.700Z,9.457361
2023-02-27T06:02:46.603Z,9.457423
2023-02-27T06:03:46.554Z,9.457346
2023-02-27T06:04:46.564Z,9.457335
2023-02-27T06:05:46.536Z,9.457294
2023-02-27T06:06:46.538Z,9.457331
2023-02-27T06:07:46.534Z,9.457356
2023-02-27T06:08:46.513Z,9.457367
2023-02-27T06:09:46.523Z,9.457369
2023-02-27T06:10:46.514Z,9.457328
2023-02-27T06:11:46.492Z,9.457355
2023-02-27T06:12:46.484Z,9.457241
2023-02-27T06:13:46.483Z,9.456967
2023-02-27T06:14:46.526Z,9.457001
2023-02-27T06:15:46.476Z,9.457236
2023-02-27T06:16:46.477Z,9.457220
2023-02-27T06:17:46.441Z,9.457365
2023-02-27T06:18:46.425Z,9.457413
2023-02-27T06:19:46.456Z,9.457527
2023-02-27T06:20:46.406Z,9.457383
2023-02-27T06:21:47.435Z,9.457544
2023-02-27T06:22:46.410Z,9.457431
2023-02-27T06:23:46.387Z,9.457406
2023-02-27T06:24:46.433Z,9.457301
2023-02-27T06:25:46.363Z,9.457207
2023-02-27T06:26:46.393Z,9.457275
2023-02-27T06:27:46.357Z,9.457443
2023-02-27T06:28:46.347Z,9.457377
2023-02-27T06:29:46.393Z,9.457196
2023-02-27T06:30:46.618Z,9.457252
2023-02-27T06:31:47.338Z,9.457150
2023-02-27T06:32:46.321Z,9.457360
2023-02-27T06:33:46.305Z,9.457171
2023-02-27T06:34:46.320Z,9.457170
2023-02-27T06:35:46.319Z,9.456926
2023-02-27T06:36:46.274Z,9.457288
2023-02-27T06:37:46.282Z,9.457378
2023-02-27T06:38:46.258Z,9.457520
2023-02-27T06:39:46.256Z,9.457460
2023-02-27T06:40:46.241Z,9.457330
2023-02-27T06:41:46.230Z,9.457376
2023-02-27T06:42:46.291Z,9.457504
2023-02-27T06:43:46.214Z,9.457433
2023-02-27T06:44:46.213Z,9.457376
2023-02-27T06:45:46.214Z,9.457432
2023-02-27T06:46:46.196Z,9.457479
2023-02-27T06:47:46.173Z,9.457523
2023-02-27T06:48:46.175Z,9.457429
2023-02-27T06:49:46.174Z,9.457410
2023-02-27T06:50:46.186Z,9.457284
2023-02-27T06:51:46.137Z,9.457275
2023-02-27T06:52:46.143Z,9.457181
2023-02-27T06:53:46.142Z,9.457170
2023-02-27T06:54:46.133Z,9.457152
2023-02-27T06:55:46.135Z,9.457150
2023-02-27T06:56:46.130Z,9.457341
2023-02-27T06:57:46.092Z,9.457248
2023-02-27T06:58:46.086Z,9.457241
2023-02-27T06:59:46.069Z,9.457173
2023-02-27T07:00:46.097Z,9.457115
2023-02-27T07:01:46.148Z,9.457446
2023-02-27T07:02:46.042Z,9.457378
2023-02-27T07:03:46.047Z,9.457442
2023-02-27T07:04:46.068Z,9.457331
2023-02-27T07:05:46.037Z,9.457353
2023-02-27T07:07:35.316Z,9.457371
2023-02-27T07:07:47.003Z,9.457459
2023-02-27T07:09:01.624Z,9.457352
2023-02-27T07:09:46.988Z,9.457222
2023-02-27T07:10:45.989Z,9.457452
2023-02-27T07:11:45.992Z,9.457442
2023-02-27T07:12:45.964Z,9.457252
2023-02-27T07:13:45.956Z,9.457284
2023-02-27T07:14:45.942Z,9.457452
2023-02-27T07:15:45.978Z,9.457339
2023-02-27T07:16:46.922Z,9.457342
2023-02-27T07:17:45.911Z,9.457293
2023-02-27T07:18:45.918Z,9.457506
2023-02-27T07:19:45.909Z,9.457180
2023-02-27T07:20:45.930Z,9.457397
2023-02-27T07:21:45.890Z,9.457218
2023-02-27T07:22:45.887Z,9.457388
2023-02-27T07:23:45.875Z,9.457397
2023-02-27T07:24:45.860Z,9.457420
2023-02-27T07:25:45.878Z,9.457307
2023-02-27T07:26:45.849Z,9.457418
2023-02-27T07:27:45.842Z,9.457400
2023-02-27T07:28:45.810Z,9.457232
2023-02-27T07:29:45.810Z,9.457314
2023-02-27T07:30:45.854Z,9.457269
2023-02-27T07:31:45.830Z,9.457302
2023-02-27T07:32:45.779Z,9.457273
2023-02-27T07:33:45.782Z,9.457325
2023-02-27T07:34:45.767Z,9.457300
2023-02-27T07:35:45.811Z,9.457348
2023-02-27T07:36:45.744Z,9.457282
2023-02-27T07:37:45.751Z,9.457288
2023-02-27T07:38:45.750Z,9.457307
2023-02-27T07:39:45.732Z,9.457265
2023-02-27T07:40:45.751Z,9.457319
2023-02-27T07:41:45.717Z,9.457310
2023-02-27T07:42:45.704Z,9.457374
2023-02-27T07:43:45.694Z,9.457330
2023-02-27T07:44:45.687Z,9.457289
2023-02-27T07:45:45.706Z,9.457265
2023-02-27T07:46:45.717Z,9.457247
2023-02-27T07:47:45.667Z,9.457220
2023-02-27T07:48:45.651Z,9.457284
2023-02-27T07:49:45.637Z,9.457256
2023-02-27T07:50:45.651Z,9.457223
2023-02-27T07:51:45.613Z,9.457225
2023-02-27T07:52:45.668Z,9.457200
2023-02-27T07:53:45.603Z,9.457296
2023-02-27T07:54:45.596Z,9.457270
2023-02-27T07:55:45.624Z,9.457248
2023-02-27T07:56:45.564Z,9.457189
2023-02-27T07:57:45.563Z,9.457290
2023-02-27T07:58:45.549Z,9.457339
2023-02-27T07:59:45.546Z,9.457279
2023-02-27T08:00:45.554Z,9.457260
2023-02-27T08:01:45.519Z,9.457274
2023-02-27T08:02:45.603Z,9.457317
2023-02-27T08:03:45.514Z,9.457383
2023-02-27T08:04:45.515Z,9.457337
2023-02-27T08:05:45.502Z,9.457389
2023-02-27T08:06:45.493Z,9.457205
2023-02-27T08:07:45.487Z,9.457277
2023-02-27T08:08:45.448Z,9.457195
2023-02-27T08:09:45.438Z,9.457160
2023-02-27T08:10:45.459Z,9.457141
2023-02-27T08:11:47.249Z,9.457228
2023-02-27T08:12:45.418Z,9.457138
2023-02-27T08:14:00.098Z,9.457308
2023-02-27T08:14:47.395Z,9.457307
2023-02-27T08:15:45.477Z,9.457345
2023-02-27T08:16:45.374Z,9.457268
2023-02-27T08:17:45.394Z,9.457282
2023-02-27T08:18:45.403Z,9.457236
2023-02-27T08:19:45.418Z,9.457294
2023-02-27T08:20:45.423Z,9.457294
2023-02-27T08:21:45.338Z,9.457273
2023-02-27T08:22:45.314Z,9.457336
2023-02-27T08:23:45.309Z,9.457164
2023-02-27T08:24:45.293Z,9.457131
2023-02-27T08:25:45.301Z,9.457182
2023-02-27T08:26:45.294Z,9.457226
2023-02-27T08:27:45.274Z,9.456946
2023-02-27T08:28:45.261Z,9.457133
2023-02-27T08:29:45.243Z,9.457170
2023-02-27T08:30:45.257Z,9.457035
2023-02-27T08:31:45.415Z,9.456869
2023-02-27T08:32:45.215Z,9.457191
2023-02-27T08:33:45.227Z,9.457361
2023-02-27T08:34:45.200Z,9.457162
2023-02-27T08:35:45.218Z,9.457167
2023-02-27T08:36:45.171Z,9.457244
2023-02-27T08:37:45.183Z,9.457324
2023-02-27T08:38:45.152Z,9.457374
2023-02-27T08:39:45.159Z,9.457351
2023-02-27T08:40:45.126Z,9.457348
2023-02-27T08:41:45.192Z,9.457164
2023-02-27T08:42:45.956Z,9.457191
2023-02-27T08:43:45.107Z,9.457232
2023-02-27T08:44:45.115Z,9.457156
2023-02-27T08:45:45.120Z,9.457054
2023-02-27T08:46:45.071Z,9.457146
2023-02-27T08:47:45.181Z,9.457215
2023-02-27T08:48:45.066Z,9.457257
2023-02-27T08:49:45.066Z,9.457323
2023-02-27T08:50:45.054Z,9.457318
2023-02-27T08:51:45.021Z,9.457469
2023-02-27T08:52:45.014Z,9.457433
2023-02-27T08:53:45.006Z,9.457299
2023-02-27T08:54:44.993Z,9.457237
2023-02-27T08:55:44.997Z,9.457328
2023-02-27T08:56:45.066Z,9.457288
2023-02-27T08:57:44.960Z,9.457167
2023-02-27T08:58:44.960Z,9.457339
2023-02-27T08:59:45.011Z,9.457376
2023-02-27T09:00:44.980Z,9.457318
2023-02-27T09:01:44.935Z,9.457212
2023-02-27T09:02:44.988Z,9.457295
2023-02-27T09:03:44.909Z,9.457375
2023-02-27T09:04:44.934Z,9.457352
2023-02-27T09:05:44.911Z,9.457292
2023-02-27T09:06:44.882Z,9.457370
2023-02-27T09:07:45.874Z,9.457253
2023-02-27T09:08:44.865Z,9.457400
2023-02-27T09:09:44.857Z,9.457467
2023-02-27T09:10:44.874Z,9.457289
2023-02-27T09:11:44.829Z,9.457293
2023-02-27T09:12:44.839Z,9.457193
2023-02-27T09:13:44.818Z,9.457305
2023-02-27T09:14:44.814Z,9.457456
2023-02-27T09:15:44.824Z,9.457390
2023-02-27T09:16:44.852Z,9.457546
2023-02-27T09:17:44.801Z,9.457236
2023-02-27T09:18:44.776Z,9.457279
2023-02-27T09:19:44.777Z,9.457368
2023-02-27T09:20:44.778Z,9.457353
2023-02-27T09:21:44.745Z,9.457253
2023-02-27T09:22:44.735Z,9.457324
2023-02-27T09:23:44.733Z,9.457346
2023-02-27T09:24:44.711Z,9.457313
2023-02-27T09:25:44.746Z,9.457299
2023-02-27T09:26:46.475Z,9.457294
2023-02-27T09:27:45.712Z,9.457274
2023-02-27T09:28:44.695Z,9.457117
2023-02-27T09:29:44.682Z,9.457226
2023-02-27T09:30:44.719Z,9.457225
2023-02-27T09:31:44.805Z,9.457183
2023-02-27T09:32:44.709Z,9.457448
2023-02-27T09:33:44.653Z,9.457539
2023-02-27T09:34:44.638Z,9.457280
2023-02-27T09:35:44.659Z,9.457229
2023-02-27T09:36:44.619Z,9.457286
2023-02-27T09:37:44.605Z,9.457240
2023-02-27T09:38:44.611Z,9.457319
2023-02-27T09:39:46.250Z,9.457470
2023-02-27T09:40:44.579Z,9.457449
2023-02-27T09:41:44.580Z,9.457312
2023-02-27T09:42:44.587Z,9.457277
2023-02-27T09:43:44.571Z,9.457337
2023-02-27T09:44:47.163Z,9.457122
2023-02-27T09:45:45.590Z,9.457047
2023-02-27T09:46:44.533Z,9.457426
2023-02-27T09:47:44.528Z,9.457462
2023-02-27T09:48:44.514Z,9.457540
2023-02-27T09:49:44.514Z,9.457293
2023-02-27T09:50:44.521Z,9.457256
2023-02-27T09:51:44.500Z,9.457271
2023-02-27T09:52:44.484Z,9.457182
2023-02-27T09:53:44.480Z,9.457289
2023-02-27T09:54:44.696Z,9.457354
2023-02-27T09:55:45.497Z,9.457342
2023-02-27T09:56:44.454Z,9.457389
2023-02-27T09:57:44.445Z,9.457238
2023-02-27T09:58:44.447Z,9.457273
2023-02-27T09:59:44.439Z,9.457307
2023-02-27T10:00:44.429Z,9.457464
2023-02-27T10:01:44.451Z,9.457567
2023-02-27T10:02:44.456Z,9.457369
2023-02-27T10:03:44.396Z,9.457362
2023-02-27T10:04:44.390Z,9.457199
2023-02-27T10:05:44.429Z,9.457253
2023-02-27T10:06:44.397Z,9.457293
2023-02-27T10:07:44.373Z,9.457173
2023-02-27T10:08:44.366Z,9.457028
2023-02-27T10:09:44.371Z,9.457046
2023-02-27T10:10:44.340Z,9.457078
2023-02-27T10:11:44.361Z,9.457192
2023-02-27T10:12:44.331Z,9.457321
2023-02-27T10:13:44.326Z,9.457236
2023-02-27T10:14:44.310Z,9.457147
2023-02-27T10:15:44.301Z,9.457149
2023-02-27T10:16:44.365Z,9.457184
2023-02-27T10:17:44.299Z,9.457156
2023-02-27T10:18:44.280Z,9.457361
2023-02-27T10:19:44.279Z,9.457197
2023-02-27T10:20:44.279Z,9.457114
2023-02-27T10:21:44.282Z,9.457111
2023-02-27T10:22:44.258Z,9.457193
2023-02-27T10:23:44.242Z,9.457060
2023-02-27T10:24:44.237Z,9.457285
2023-02-27T10:25:44.251Z,9.457146
2023-02-27T10:26:44.250Z,9.457115
2023-02-27T10:27:44.193Z,9.457118
2023-02-27T10:28:45.182Z,9.457029
2023-02-27T10:29:44.175Z,9.457054
2023-02-27T10:30:44.203Z,9.457129
2023-02-27T10:31:44.212Z,9.457300
2023-02-27T10:32:44.146Z,9.457107
2023-02-27T10:33:44.156Z,9.457052
2023-02-27T10:34:44.142Z,9.457234
2023-02-27T10:35:44.142Z,9.457170
2023-02-27T10:36:44.135Z,9.457151
2023-02-27T10:37:44.112Z,9.457177
2023-02-27T10:38:44.088Z,9.457207
2023-02-27T10:39:44.079Z,9.457162
2023-02-27T10:40:44.078Z,9.457137
2023-02-27T10:41:44.081Z,9.457186
2023-02-27T10:42:44.083Z,9.457103
2023-02-27T10:43:44.042Z,9.457145
2023-02-27T10:44:44.038Z,9.457220
2023-02-27T10:45:44.028Z,9.457133
2023-02-27T10:46:44.174Z,9.457123
2023-02-27T10:47:44.005Z,9.457164
2023-02-27T10:48:44.004Z,9.457257
2023-02-27T10:49:43.998Z,9.457207
2023-02-27T10:50:43.982Z,9.457257
2023-02-27T10:51:43.985Z,9.457190
2023-02-27T10:52:43.963Z,9.457165
2023-02-27T10:53:43.951Z,9.457224
2023-02-27T10:54:43.933Z,9.457203
2023-02-27T10:55:43.934Z,9.457170
2023-02-27T10:56:43.926Z,9.457324
2023-02-27T10:57:43.911Z,9.457312
2023-02-27T10:58:43.915Z,9.457276
2023-02-27T10:59:43.893Z,9.457219
2023-02-27T11:00:43.879Z,9.457165
2023-02-27T11:01:43.971Z,9.457256
2023-02-27T11:02:43.857Z,9.457191
2023-02-27T11:03:43.872Z,9.457225
2023-02-27T11:04:43.843Z,9.457132
2023-02-27T11:05:43.835Z,9.457174
2023-02-27T11:06:43.853Z,9.457147
2023-02-27T11:07:43.814Z,9.457096
2023-02-27T11:08:43.830Z,9.457180
2023-02-27T11:09:43.850Z,9.457101
2023-02-27T11:10:43.797Z,9.457299
2023-02-27T11:11:43.794Z,9.457169
2023-02-27T11:12:43.768Z,9.457161
2023-02-27T11:13:43.793Z,9.457092
2023-02-27T11:14:43.743Z,9.457017
2023-02-27T11:15:43.755Z,9.456812
2023-02-27T11:16:43.747Z,9.456873
2023-02-27T11:17:43.729Z,9.456957
2023-02-27T11:18:44.709Z,9.457170
2023-02-27T11:19:43.706Z,9.457276
2023-02-27T11:20:43.727Z,9.457210
2023-02-27T11:21:43.698Z,9.457198
2023-02-27T11:22:43.669Z,9.457077
2023-02-27T11:23:43.665Z,9.457051
2023-02-27T11:24:43.652Z,9.457091
2023-02-27T11:25:43.651Z,9.457096
2023-02-27T11:26:43.648Z,9.457071
2023-02-27T11:27:43.625Z,9.457007
2023-02-27T11:28:43.616Z,9.456943
2023-02-27T11:29:43.621Z,9.456945
2023-02-27T11:30:43.592Z,9.457009
2023-02-27T11:31:43.666Z,9.457008
2023-02-27T11:33:10.028Z,9.457024
2023-02-27T11:33:43.575Z,9.456944
2023-02-27T11:34:43.550Z,9.457018
2023-02-27T11:35:43.600Z,9.456994
2023-02-27T11:36:43.565Z,9.456935
2023-02-27T11:37:43.525Z,9.456917
2023-02-27T11:38:43.510Z,9.456983
2023-02-27T11:39:43.498Z,9.457067
2023-02-27T11:40:43.494Z,9.457025
2023-02-27T11:41:43.513Z,9.457233
2023-02-27T11:42:43.485Z,9.457256
2023-02-27T11:43:43.472Z,9.457191
2023-02-27T11:44:50.484Z,9.457141